ENMS/MJF METAR and TAF weather

Enter ICAO airport designator
Station Type Date Time Source
ENMS METAR 2018/10/16 19:50 UTC NOAA

ENMS 161950Z VRB02KT CAVOK 07/04 Q1012 RMK WIND 412FT VRB02KT


Station Type Date Time Source
ENMS Decoded METAR 2018/10/16 19:50 UTC NOAA

Mosjoen Kjaerstad, Norway (ENMS) 65-48N 013-08E
Oct 16, 2018 - 03:50 PM EDT / 2018.10.16 1950 UTC
Wind: Variable at 2 MPH (2 KT):0
Visibility: greater than 7 mile(s):0
Temperature: 44 F (7 C)
Dew Point: 39 F (4 C)
Relative Humidity: 81%
Pressure (altimeter): 29.88 in. Hg (1012 hPa)
ob: ENMS 161950Z VRB02KT CAVOK 07/04 Q1012 RMK WIND 412FT VRB02KT
cycle: 20

Station Type Date Time Source
ENMS TAF UTC NOAA

Error!


Example: see airport list